Terminal Aerodrome Forecast
Issued by NWS Twin Cities, MN

Home | Current Version | Previous Version | Graphics & Text | Print | Product List | Glossary On
Versions: 1 2 3 4 5 6 7 8 9 10 11 12 13 14 15 16 17 18 19 20 21 22 23 24
009
FTUS43 KMPX 210315 AAA
TAFMSP
TAF AMD
KMSP 210315Z 2103/2206 11010KT 3SM -DZ BR OVC007
     FM210900 18007KT 1SM -DZ BR OVC005
     FM211400 27012KT P6SM BKN007 OVC015
     FM211800 28012G20KT P6SM OVC015
     FM212200 28014G22KT P6SM VCSH BKN025
     FM220300 27009KT P6SM SCT025 BKN050=

USA.gov is the U.S. government's official web portal to all federal, state and local government web resources and services.